createdAt,value
2023-02-15T00:00:00.964Z,60.26
2023-02-15T00:00:33.880Z,60.17
2023-02-15T00:01:07.506Z,60.01
2023-02-15T00:01:40.279Z,60.28
2023-02-15T00:02:12.789Z,60.22
2023-02-15T00:02:45.342Z,60.10
2023-02-15T00:03:36.776Z,60.42
2023-02-15T00:04:10.268Z,60.36
2023-02-15T00:05:01.502Z,60.50
2023-02-15T00:05:34.314Z,60.32
2023-02-15T00:06:07.039Z,60.21
2023-02-15T00:06:39.874Z,60.00
2023-02-15T00:07:14.191Z,60.01
2023-02-15T00:07:46.726Z,60.07
2023-02-15T00:08:19.304Z,59.66
2023-02-15T00:08:52.053Z,60.02
2023-02-15T00:09:24.588Z,60.37
2023-02-15T00:09:57.203Z,60.61
2023-02-15T00:10:29.814Z,60.41
2023-02-15T00:11:09.166Z,60.45
2023-02-15T00:12:02.657Z,60.46
2023-02-15T00:12:35.458Z,60.44
2023-02-15T00:13:28.183Z,60.55
2023-02-15T00:14:22.897Z,60.80
2023-02-15T00:14:56.510Z,60.99
2023-02-15T00:15:52.754Z,60.97
2023-02-15T00:16:25.516Z,61.08
2023-02-15T00:17:00.803Z,61.03
2023-02-15T00:17:52.265Z,60.87
2023-02-15T00:18:25.036Z,60.96
2023-02-15T00:18:58.508Z,61.18
2023-02-15T00:19:31.277Z,61.08
2023-02-15T00:20:04.256Z,60.99
2023-02-15T00:20:55.746Z,61.10
2023-02-15T00:21:30.655Z,61.12
2023-02-15T00:22:03.560Z,60.89
2023-02-15T00:22:36.351Z,60.60
2023-02-15T00:23:28.030Z,60.43
2023-02-15T00:24:00.910Z,60.12
2023-02-15T00:24:33.577Z,60.40
2023-02-15T00:25:25.178Z,60.52
2023-02-15T00:26:11.430Z,60.93
2023-02-15T00:27:02.849Z,60.89
2023-02-15T00:27:53.801Z,60.88
2023-02-15T00:28:45.299Z,60.64
2023-02-15T00:29:18.026Z,60.80
2023-02-15T00:29:52.562Z,60.88
2023-02-15T00:30:43.939Z,60.88
2023-02-15T00:31:17.618Z,60.21
2023-02-15T00:31:50.420Z,60.19
2023-02-15T00:32:23.135Z,60.58
2023-02-15T00:32:55.678Z,60.64
2023-02-15T00:33:28.238Z,61.09
2023-02-15T00:34:08.559Z,61.29
2023-02-15T00:34:41.337Z,61.43
2023-02-15T00:35:13.940Z,61.51
2023-02-15T00:35:46.524Z,61.25
2023-02-15T00:36:19.285Z,60.71
2023-02-15T00:36:52.056Z,60.50
2023-02-15T00:37:24.620Z,60.25
2023-02-15T00:37:57.351Z,60.27
2023-02-15T00:38:30.395Z,60.43
2023-02-15T00:39:05.668Z,60.49
2023-02-15T00:39:38.431Z,60.79
2023-02-15T00:40:11.444Z,60.72
2023-02-15T00:40:43.971Z,60.77
2023-02-15T00:41:16.551Z,60.53
2023-02-15T00:41:49.136Z,60.59
2023-02-15T00:42:21.746Z,60.72
2023-02-15T00:42:54.442Z,60.67
2023-02-15T00:43:27.688Z,60.55
2023-02-15T00:44:00.512Z,60.52
2023-02-15T00:44:33.091Z,60.30
2023-02-15T00:45:05.953Z,60.48
2023-02-15T00:45:38.503Z,60.13
2023-02-15T00:46:11.125Z,60.18
2023-02-15T00:46:44.749Z,60.31
2023-02-15T00:47:17.577Z,60.33
2023-02-15T00:47:50.105Z,60.60
2023-02-15T00:48:22.847Z,60.72
2023-02-15T00:49:14.264Z,60.92
2023-02-15T00:49:46.810Z,60.70
2023-02-15T00:50:19.310Z,60.76
2023-02-15T00:51:18.230Z,60.39
2023-02-15T00:51:50.770Z,59.83
2023-02-15T00:52:23.300Z,59.85
2023-02-15T00:52:56.033Z,60.06
2023-02-15T00:53:28.936Z,60.18
2023-02-15T00:54:01.817Z,60.26
2023-02-15T00:54:35.694Z,60.40
2023-02-15T00:55:08.363Z,60.16
2023-02-15T00:55:41.356Z,60.20
2023-02-15T00:56:13.914Z,60.24
2023-02-15T00:56:46.453Z,60.01
2023-02-15T00:57:19.015Z,59.87
2023-02-15T00:57:51.588Z,59.84
2023-02-15T00:58:42.840Z,59.56
2023-02-15T00:59:15.358Z,59.56
2023-02-15T00:59:48.029Z,59.57
2023-02-15T01:00:20.678Z,59.54
2023-02-15T01:00:53.473Z,59.76
2023-02-15T01:01:26.955Z,59.80
2023-02-15T01:01:59.385Z,60.04
2023-02-15T01:02:31.912Z,60.12
2023-02-15T01:03:04.916Z,59.89
2023-02-15T01:03:37.466Z,60.04
2023-02-15T01:04:10.115Z,60.05
2023-02-15T01:04:42.578Z,60.31
2023-02-15T01:05:15.122Z,60.23
2023-02-15T01:05:47.799Z,59.98
2023-02-15T01:06:20.410Z,59.98
2023-02-15T01:06:52.960Z,60.12
2023-02-15T01:08:13.093Z,60.08
2023-02-15T01:08:46.024Z,60.55
2023-02-15T01:09:18.740Z,60.57
2023-02-15T01:09:51.281Z,60.39
2023-02-15T01:10:23.971Z,60.65
2023-02-15T01:11:46.377Z,60.24
2023-02-15T01:12:18.980Z,60.31
2023-02-15T01:12:52.073Z,60.55
2023-02-15T01:13:24.626Z,60.41
2023-02-15T01:13:57.580Z,60.20
2023-02-15T01:14:30.143Z,60.40
2023-02-15T01:15:02.700Z,60.40
2023-02-15T01:15:36.519Z,60.30
2023-02-15T01:16:09.490Z,60.16
2023-02-15T01:16:41.998Z,59.96
2023-02-15T01:17:14.557Z,60.03
2023-02-15T01:18:30.992Z,60.07
2023-02-15T01:19:03.816Z,60.20
2023-02-15T01:19:54.952Z,60.21
2023-02-15T01:20:28.367Z,60.50
2023-02-15T01:21:01.118Z,60.37
2023-02-15T01:21:52.680Z,60.27
2023-02-15T01:22:25.494Z,60.13
2023-02-15T01:22:58.350Z,60.10
2023-02-15T01:23:11.164Z,59.86
2023-02-15T01:23:43.962Z,59.81
2023-02-15T01:24:16.723Z,59.73
2023-02-15T01:25:08.398Z,59.95
2023-02-15T01:25:40.987Z,60.27
2023-02-15T01:26:32.025Z,60.46
2023-02-15T01:27:04.594Z,60.42
2023-02-15T01:27:37.142Z,60.29
2023-02-15T01:28:09.713Z,60.36
2023-02-15T01:28:42.613Z,60.40
2023-02-15T01:29:15.180Z,60.16
2023-02-15T01:29:48.521Z,60.11
2023-02-15T01:30:50.686Z,60.07
2023-02-15T01:31:23.310Z,59.92
2023-02-15T01:31:56.021Z,59.83
2023-02-15T01:32:28.488Z,59.79
2023-02-15T01:33:20.281Z,59.74
2023-02-15T01:33:52.817Z,60.12
2023-02-15T01:34:25.407Z,60.50
2023-02-15T01:35:17.541Z,60.64
2023-02-15T01:35:50.082Z,60.56
2023-02-15T01:36:22.653Z,60.24
2023-02-15T01:37:14.269Z,60.17
2023-02-15T01:38:05.584Z,60.10
2023-02-15T01:38:57.251Z,60.33
2023-02-15T01:39:29.850Z,60.28
2023-02-15T01:40:03.398Z,60.24
2023-02-15T01:40:54.726Z,59.88
2023-02-15T01:41:28.216Z,60.12
2023-02-15T01:42:00.772Z,60.59
2023-02-15T01:42:33.375Z,60.59
2023-02-15T01:43:11.408Z,60.46
2023-02-15T01:43:49.020Z,60.14
2023-02-15T01:44:54.318Z,60.01
2023-02-15T01:45:30.619Z,59.35
2023-02-15T01:46:03.492Z,59.48
2023-02-15T01:47:02.880Z,60.10
2023-02-15T01:47:38.296Z,60.46
2023-02-15T01:48:30.405Z,60.34
2023-02-15T01:49:04.205Z,60.50
2023-02-15T01:49:36.737Z,60.51
2023-02-15T01:50:30.576Z,60.25
2023-02-15T01:51:52.201Z,60.01
2023-02-15T01:52:24.721Z,60.35
2023-02-15T01:53:25.013Z,60.27
2023-02-15T01:54:20.851Z,60.22
2023-02-15T01:54:53.593Z,59.91
2023-02-15T01:55:28.091Z,60.11
2023-02-15T01:56:24.882Z,60.28
2023-02-15T01:57:00.696Z,60.28
2023-02-15T01:57:33.259Z,60.51
2023-02-15T01:58:30.221Z,60.25
2023-02-15T01:59:04.715Z,60.04
2023-02-15T01:59:39.010Z,60.09
2023-02-15T02:00:11.835Z,60.21
2023-02-15T02:01:05.251Z,60.57
2023-02-15T02:01:37.824Z,60.91
2023-02-15T02:02:10.734Z,61.02
2023-02-15T02:02:43.370Z,60.78
2023-02-15T02:03:15.838Z,60.48
2023-02-15T02:04:03.174Z,60.82
2023-02-15T02:04:56.606Z,60.48
2023-02-15T02:05:47.594Z,60.20
2023-02-15T02:06:20.339Z,60.44
2023-02-15T02:06:53.071Z,60.63
2023-02-15T02:07:28.278Z,60.47
2023-02-15T02:08:00.987Z,60.47
2023-02-15T02:08:51.909Z,60.43
2023-02-15T02:09:43.171Z,60.83
2023-02-15T02:10:18.446Z,60.88
2023-02-15T02:11:13.004Z,60.69
2023-02-15T02:11:47.125Z,60.83
2023-02-15T02:12:19.907Z,60.67
2023-02-15T02:12:55.982Z,60.33
2023-02-15T02:13:28.565Z,60.67
2023-02-15T02:14:01.293Z,60.77
2023-02-15T02:14:34.045Z,60.53
2023-02-15T02:15:07.203Z,60.43
2023-02-15T02:15:49.903Z,60.55
2023-02-15T02:16:33.263Z,60.41
2023-02-15T02:17:08.209Z,60.10
2023-02-15T02:18:11.362Z,59.93
2023-02-15T02:19:25.118Z,59.90
2023-02-15T02:20:16.520Z,59.72
2023-02-15T02:21:04.181Z,59.89
2023-02-15T02:22:05.235Z,59.96
2023-02-15T02:23:06.057Z,60.22
2023-02-15T02:23:41.595Z,60.41
2023-02-15T02:24:37.436Z,60.53
2023-02-15T02:25:13.199Z,60.37
2023-02-15T02:26:33.005Z,59.99
2023-02-15T02:27:25.532Z,59.60
2023-02-15T02:28:15.976Z,59.82
2023-02-15T02:28:48.489Z,60.29
2023-02-15T02:29:49.100Z,60.39
2023-02-15T02:30:27.175Z,60.15
2023-02-15T02:31:26.873Z,60.21
2023-02-15T02:32:14.418Z,60.28
2023-02-15T02:33:40.596Z,60.35
2023-02-15T02:34:30.405Z,59.89
2023-02-15T02:35:17.357Z,59.68
2023-02-15T02:35:33.093Z,59.72
2023-02-15T02:36:41.739Z,59.58
2023-02-15T02:37:23.002Z,59.73
2023-02-15T02:38:39.772Z,59.90
2023-02-15T02:39:50.899Z,59.92
2023-02-15T02:40:39.192Z,59.81
2023-02-15T02:41:20.769Z,59.84
2023-02-15T02:42:11.327Z,59.99
2023-02-15T03:16:12.918Z,60.39
2023-02-15T03:16:47.111Z,59.99
2023-02-15T03:17:22.951Z,59.83
2023-02-15T03:17:59.706Z,59.54
2023-02-15T03:18:35.662Z,59.80
2023-02-15T03:19:12.494Z,59.70
2023-02-15T03:19:45.239Z,59.31
2023-02-15T03:20:36.737Z,59.56
2023-02-15T03:21:09.391Z,59.22
2023-02-15T03:22:10.439Z,59.35
2023-02-15T03:22:54.407Z,59.44
2023-02-15T03:23:27.153Z,59.54
2023-02-15T03:24:01.718Z,59.50
2023-02-15T03:25:05.749Z,59.36
2023-02-15T03:25:42.414Z,59.72
2023-02-15T03:26:14.999Z,59.42
2023-02-15T03:26:48.874Z,59.34
2023-02-15T03:27:27.077Z,59.52
2023-02-15T03:28:22.142Z,59.73
2023-02-15T03:28:55.765Z,59.61
2023-02-15T03:29:18.528Z,59.84
2023-02-15T03:30:49.727Z,59.81
2023-02-15T03:31:22.862Z,60.29
2023-02-15T03:32:00.302Z,60.24
2023-02-15T03:32:33.979Z,60.44
2023-02-15T03:33:33.757Z,60.21
2023-02-15T03:34:08.774Z,60.31
2023-02-15T03:35:07.429Z,60.20
2023-02-15T03:37:34.420Z,60.07
2023-02-15T03:41:11.789Z,60.26
2023-02-15T03:41:55.472Z,59.92
2023-02-15T03:43:13.590Z,59.95
2023-02-15T03:49:50.024Z,59.97
2023-02-15T03:50:42.915Z,59.87
2023-02-15T03:51:36.026Z,60.30
2023-02-15T03:51:50.060Z,60.42
2023-02-15T03:52:22.838Z,60.46
2023-02-15T03:52:56.129Z,60.60
2023-02-15T03:53:28.872Z,60.63
2023-02-15T03:54:11.724Z,60.62
2023-02-15T03:54:44.485Z,60.41
2023-02-15T03:55:17.459Z,60.38
2023-02-15T03:55:50.810Z,60.27
2023-02-15T03:56:23.371Z,60.47
2023-02-15T03:57:15.930Z,60.49
2023-02-15T03:58:25.393Z,60.30
2023-02-15T03:59:34.915Z,60.23
2023-02-15T04:00:33.734Z,60.04
2023-02-15T04:01:26.738Z,60.45
2023-02-15T04:02:23.059Z,60.44
2023-02-15T04:03:18.240Z,60.40
2023-02-15T04:04:20.566Z,60.58
2023-02-15T04:04:53.285Z,60.80
2023-02-15T04:05:26.127Z,60.67
2023-02-15T04:05:58.730Z,60.65
2023-02-15T04:06:31.249Z,60.61
2023-02-15T04:07:04.258Z,60.56
2023-02-15T04:07:36.818Z,60.57
2023-02-15T04:08:47.575Z,60.68
2023-02-15T04:10:02.335Z,60.49
2023-02-15T04:10:53.154Z,60.82
2023-02-15T04:11:25.786Z,60.98
2023-02-15T04:11:58.515Z,61.14
2023-02-15T04:12:31.577Z,61.09
2023-02-15T04:13:04.134Z,61.12
2023-02-15T04:13:36.728Z,61.01
2023-02-15T04:14:35.489Z,60.90
2023-02-15T04:15:45.601Z,60.80
2023-02-15T04:16:18.378Z,60.96
2023-02-15T04:16:51.057Z,60.87
2023-02-15T04:17:23.842Z,60.75
2023-02-15T04:17:56.575Z,60.86
2023-02-15T04:18:47.728Z,60.74
2023-02-15T04:19:39.087Z,60.52
2023-02-15T04:20:49.550Z,60.75
2023-02-15T04:21:41.173Z,60.50
2023-02-15T04:22:34.185Z,60.67
2023-02-15T04:23:43.901Z,61.00
2023-02-15T04:24:35.558Z,60.79
2023-02-15T04:25:14.331Z,60.81
2023-02-15T04:26:17.569Z,60.68
2023-02-15T04:26:50.277Z,60.75
2023-02-15T04:27:48.496Z,60.59
2023-02-15T04:28:03.094Z,60.79
2023-02-15T04:28:37.771Z,60.91
2023-02-15T04:28:58.435Z,60.81
2023-02-15T04:29:54.188Z,60.80
2023-02-15T04:30:27.519Z,60.97
2023-02-15T04:31:01.750Z,60.88
2023-02-15T04:32:13.957Z,60.88
2023-02-15T04:32:46.572Z,60.87
2023-02-15T04:33:21.189Z,60.51
2023-02-15T04:34:16.057Z,60.84
2023-02-15T04:34:48.737Z,60.80
2023-02-15T04:35:21.438Z,60.83
2023-02-15T04:35:54.133Z,60.57
2023-02-15T04:36:27.082Z,60.52
2023-02-15T04:37:17.956Z,60.46
2023-02-15T04:37:50.663Z,60.40
2023-02-15T04:40:09.539Z,60.32
2023-02-15T04:42:48.292Z,60.23
2023-02-15T04:43:21.057Z,59.96
2023-02-15T04:44:20.173Z,59.51
2023-02-15T04:45:54.692Z,59.91
2023-02-15T04:46:27.765Z,59.87
2023-02-15T04:47:00.343Z,60.07
2023-02-15T04:47:33.260Z,60.08
2023-02-15T04:48:05.916Z,60.02
2023-02-15T04:48:38.525Z,59.73
2023-02-15T04:49:11.241Z,59.99
2023-02-15T04:49:43.883Z,59.94
2023-02-15T04:50:16.605Z,59.80
2023-02-15T04:50:51.490Z,60.05
2023-02-15T04:51:24.079Z,59.93
2023-02-15T04:52:15.448Z,59.97
2023-02-15T04:52:48.317Z,60.13
2023-02-15T04:53:21.081Z,60.01
2023-02-15T04:54:12.372Z,59.90
2023-02-15T04:54:45.695Z,59.90
2023-02-15T04:55:18.289Z,59.91
2023-02-15T04:56:10.186Z,59.85
2023-02-15T04:57:02.272Z,60.14
2023-02-15T04:57:54.165Z,60.04
2023-02-15T04:58:26.717Z,60.08
2023-02-15T04:59:23.991Z,60.15
2023-02-15T04:59:42.851Z,60.13
2023-02-15T05:00:15.542Z,60.05
2023-02-15T05:00:48.133Z,60.44
2023-02-15T05:01:20.936Z,60.49
2023-02-15T05:01:53.505Z,60.71
2023-02-15T05:02:26.270Z,60.67
2023-02-15T05:02:58.835Z,60.81
2023-02-15T05:03:31.408Z,60.63
2023-02-15T05:04:05.819Z,60.57
2023-02-15T05:04:38.564Z,60.59
2023-02-15T05:05:13.976Z,60.44
2023-02-15T05:06:14.986Z,60.34
2023-02-15T05:07:06.332Z,60.67
2023-02-15T05:07:38.992Z,60.73
2023-02-15T05:08:11.521Z,60.45
2023-02-15T05:08:44.972Z,60.74
2023-02-15T05:09:36.370Z,60.76
2023-02-15T05:10:28.494Z,60.44
2023-02-15T05:11:20.633Z,60.54
2023-02-15T05:11:53.220Z,60.46
2023-02-15T05:12:25.802Z,60.54
2023-02-15T05:12:58.326Z,60.75
2023-02-15T05:13:11.164Z,60.85
2023-02-15T05:13:43.705Z,60.61
2023-02-15T05:14:16.293Z,60.63
2023-02-15T05:14:48.823Z,60.42
2023-02-15T05:15:21.413Z,60.50
2023-02-15T05:15:54.097Z,60.53
2023-02-15T05:16:28.680Z,60.65
2023-02-15T05:17:52.808Z,60.46
2023-02-15T05:18:25.384Z,60.27
2023-02-15T05:18:57.919Z,60.56
2023-02-15T05:19:30.509Z,60.66
2023-02-15T05:20:03.844Z,60.46
2023-02-15T05:20:36.398Z,60.33
2023-02-15T05:21:27.725Z,60.36
2023-02-15T05:22:21.054Z,60.72
2023-02-15T05:22:56.255Z,60.50
2023-02-15T05:23:28.838Z,60.66
2023-02-15T05:23:41.698Z,60.73
2023-02-15T05:24:33.576Z,60.67
2023-02-15T05:25:49.119Z,60.42
2023-02-15T05:26:41.046Z,60.50
2023-02-15T05:27:32.573Z,60.40
2023-02-15T05:28:20.388Z,60.48
2023-02-15T05:28:53.098Z,60.48
2023-02-15T05:29:25.648Z,60.58
2023-02-15T05:30:17.070Z,60.34
2023-02-15T05:31:08.976Z,60.09
2023-02-15T05:31:41.689Z,60.10
2023-02-15T05:32:14.608Z,60.44
2023-02-15T05:33:23.005Z,60.46
2023-02-15T05:33:55.553Z,60.18
2023-02-15T05:34:30.085Z,60.05
2023-02-15T05:35:02.610Z,59.88
2023-02-15T05:35:58.718Z,60.00
2023-02-15T05:36:31.455Z,60.25
2023-02-15T05:37:04.020Z,60.41
2023-02-15T05:37:36.581Z,60.40
2023-02-15T05:38:09.435Z,60.24
2023-02-15T05:38:42.229Z,59.88
2023-02-15T05:39:14.971Z,59.85
2023-02-15T05:39:47.505Z,59.93
2023-02-15T05:40:20.066Z,60.04
2023-02-15T05:40:52.917Z,59.97
2023-02-15T05:41:26.577Z,60.28
2023-02-15T05:42:01.745Z,60.51
2023-02-15T05:42:34.320Z,60.61
2023-02-15T05:43:06.922Z,60.63
2023-02-15T05:43:39.851Z,60.50
2023-02-15T05:44:12.719Z,60.83
2023-02-15T05:44:45.331Z,60.68
2023-02-15T05:45:56.820Z,60.50
2023-02-15T05:46:29.739Z,60.24
2023-02-15T05:47:40.685Z,60.28
2023-02-15T05:48:13.231Z,60.20
2023-02-15T05:49:04.484Z,60.26
2023-02-15T05:49:37.347Z,60.41
2023-02-15T05:50:10.955Z,60.30
2023-02-15T05:51:10.769Z,60.39
2023-02-15T05:52:04.093Z,60.52
2023-02-15T05:52:37.026Z,60.58
2023-02-15T05:53:09.769Z,60.53
2023-02-15T05:53:42.696Z,60.53
2023-02-15T05:54:33.809Z,60.43
2023-02-15T05:55:25.254Z,60.42
2023-02-15T05:56:01.002Z,60.37
2023-02-15T05:56:32.815Z,60.66
2023-02-15T05:57:05.600Z,60.50
2023-02-15T05:57:38.211Z,60.52
2023-02-15T05:58:10.791Z,60.63
2023-02-15T05:58:43.422Z,60.82
2023-02-15T05:59:16.094Z,60.79
2023-02-15T05:59:48.687Z,60.88
2023-02-15T06:00:21.383Z,60.82
2023-02-15T06:00:54.529Z,60.80
2023-02-15T06:01:27.073Z,60.88
2023-02-15T06:01:59.683Z,60.80
2023-02-15T06:02:50.645Z,60.62
2023-02-15T06:03:23.946Z,60.75
2023-02-15T06:03:57.049Z,60.54
2023-02-15T06:04:48.415Z,60.37
2023-02-15T06:05:41.462Z,60.53
2023-02-15T06:06:14.068Z,60.53
2023-02-15T06:07:25.361Z,60.59
2023-02-15T06:07:58.229Z,60.64
2023-02-15T06:08:49.093Z,60.79
2023-02-15T06:09:41.231Z,61.00
2023-02-15T06:10:14.141Z,61.00
2023-02-15T06:11:06.213Z,60.86
2023-02-15T06:11:57.581Z,60.74
2023-02-15T06:12:31.307Z,60.44
2023-02-15T06:13:03.913Z,60.53
2023-02-15T06:13:38.552Z,60.36
2023-02-15T06:14:27.942Z,60.20
2023-02-15T06:15:29.624Z,60.73
2023-02-15T06:16:02.441Z,60.66
2023-02-15T06:16:53.838Z,60.86
2023-02-15T06:17:52.557Z,60.54
2023-02-15T06:18:25.165Z,60.60
2023-02-15T06:19:16.966Z,60.47
2023-02-15T06:19:49.547Z,60.27
2023-02-15T06:20:21.904Z,60.54
2023-02-15T06:20:54.420Z,60.23
2023-02-15T06:21:45.549Z,60.07
2023-02-15T06:22:41.698Z,60.21
2023-02-15T06:23:14.407Z,60.48
2023-02-15T06:24:05.971Z,60.45
2023-02-15T06:25:10.864Z,60.28
2023-02-15T06:26:18.492Z,59.84
2023-02-15T06:26:51.037Z,59.54
2023-02-15T06:27:23.558Z,59.30
2023-02-15T06:27:56.128Z,59.67
2023-02-15T06:28:28.669Z,59.88
2023-02-15T06:29:01.233Z,60.15
2023-02-15T06:29:33.786Z,59.83
2023-02-15T06:30:07.806Z,59.83
2023-02-15T06:30:40.615Z,59.82
2023-02-15T06:30:57.863Z,59.35
2023-02-15T06:31:31.263Z,59.33
2023-02-15T06:32:03.894Z,59.37
2023-02-15T06:32:36.528Z,59.33
2023-02-15T06:33:31.419Z,59.10
2023-02-15T06:34:03.996Z,59.36
2023-02-15T06:34:36.521Z,59.69
2023-02-15T06:35:09.094Z,59.33
2023-02-15T06:35:42.216Z,59.20
2023-02-15T06:36:14.763Z,58.76
2023-02-15T06:37:05.586Z,59.12
2023-02-15T06:37:38.318Z,58.99
2023-02-15T06:38:10.871Z,58.89
2023-02-15T06:38:44.606Z,58.80
2023-02-15T06:39:17.412Z,58.83
2023-02-15T06:40:09.594Z,58.61
2023-02-15T06:40:42.137Z,58.72
2023-02-15T06:41:14.683Z,58.83
2023-02-15T06:42:05.533Z,58.75
2023-02-15T06:42:56.541Z,58.82
2023-02-15T06:43:29.072Z,59.16
2023-02-15T06:44:21.070Z,59.07
2023-02-15T06:45:12.293Z,58.67
2023-02-15T06:45:45.088Z,58.13
2023-02-15T06:46:17.664Z,58.14
2023-02-15T06:46:52.029Z,58.20
2023-02-15T06:47:24.558Z,57.98
2023-02-15T06:47:57.926Z,58.46
2023-02-15T06:48:30.445Z,58.22
2023-02-15T06:49:30.034Z,58.23
2023-02-15T06:50:03.084Z,57.75
2023-02-15T06:50:58.799Z,57.59
2023-02-15T06:51:31.408Z,57.73
2023-02-15T06:52:22.704Z,58.32
2023-02-15T06:53:01.013Z,58.73
2023-02-15T06:53:33.718Z,58.54
2023-02-15T06:53:46.990Z,58.89
2023-02-15T06:54:19.741Z,58.81
2023-02-15T06:54:52.468Z,58.88
2023-02-15T06:55:25.641Z,58.99
2023-02-15T06:56:16.711Z,59.25
2023-02-15T06:56:49.542Z,59.30
2023-02-15T06:57:22.105Z,59.30
2023-02-15T06:57:55.640Z,59.41
2023-02-15T06:58:28.396Z,59.42
2023-02-15T06:59:01.035Z,59.46
2023-02-15T07:00:05.953Z,59.57
2023-02-15T07:00:38.646Z,59.75
2023-02-15T07:01:29.830Z,59.52
2023-02-15T07:02:21.440Z,59.40
2023-02-15T07:02:56.162Z,59.42
2023-02-15T07:03:08.999Z,59.05
2023-02-15T07:03:41.633Z,59.09
2023-02-15T07:04:14.242Z,58.66
2023-02-15T07:04:47.086Z,58.49
2023-02-15T07:05:19.780Z,58.20
2023-02-15T07:05:59.678Z,58.54
2023-02-15T07:06:34.164Z,58.48
2023-02-15T07:07:08.950Z,58.60
2023-02-15T07:08:00.280Z,58.19
2023-02-15T07:08:51.592Z,58.21
2023-02-15T07:09:53.598Z,58.21
2023-02-15T07:10:26.633Z,58.56
2023-02-15T07:11:19.501Z,58.81
2023-02-15T07:12:27.905Z,58.65
2023-02-15T07:13:20.675Z,58.76
2023-02-15T07:13:53.867Z,58.78
2023-02-15T07:14:28.912Z,59.01
2023-02-15T07:15:19.097Z,59.04
2023-02-15T07:15:51.913Z,58.73
2023-02-15T07:16:24.910Z,58.59
2023-02-15T07:16:57.592Z,58.42
2023-02-15T07:17:35.874Z,58.60
2023-02-15T07:18:06.193Z,58.37
2023-02-15T07:18:58.931Z,58.48
2023-02-15T07:19:31.539Z,58.62
2023-02-15T07:20:52.843Z,58.60
2023-02-15T07:21:25.758Z,58.73
2023-02-15T07:21:58.678Z,59.08
2023-02-15T07:22:31.627Z,58.79
2023-02-15T07:23:05.402Z,58.78
2023-02-15T07:23:39.079Z,58.76
2023-02-15T07:24:30.934Z,58.79
2023-02-15T07:25:04.817Z,59.02
2023-02-15T07:25:37.636Z,59.05
2023-02-15T07:26:52.413Z,59.08
2023-02-15T07:27:25.036Z,58.78
2023-02-15T07:27:59.171Z,58.70
2023-02-15T07:28:33.334Z,58.80
2023-02-15T07:29:06.077Z,58.83
2023-02-15T07:29:38.820Z,59.06
2023-02-15T07:30:13.262Z,58.92
2023-02-15T07:30:46.360Z,59.03
2023-02-15T07:31:19.245Z,58.98
2023-02-15T07:32:10.593Z,58.83
2023-02-15T07:33:04.772Z,58.71
2023-02-15T07:33:35.037Z,58.84
2023-02-15T07:34:08.738Z,58.71
2023-02-15T07:35:00.556Z,59.00
2023-02-15T07:35:34.172Z,58.90
2023-02-15T07:36:07.555Z,58.85
2023-02-15T07:38:06.585Z,58.78
2023-02-15T07:39:34.369Z,59.29
2023-02-15T07:40:07.584Z,58.88
2023-02-15T07:40:40.523Z,59.10
2023-02-15T07:41:15.197Z,58.88
2023-02-15T07:41:47.963Z,59.00
2023-02-15T07:42:22.102Z,59.03
2023-02-15T07:42:56.049Z,58.84
2023-02-15T07:43:29.527Z,59.04
2023-02-15T07:44:02.730Z,59.21
2023-02-15T07:44:35.620Z,59.11
2023-02-15T07:45:08.856Z,59.00
2023-02-15T07:45:21.870Z,58.89
2023-02-15T07:45:54.781Z,58.73
2023-02-15T07:46:27.816Z,58.86
2023-02-15T07:47:00.760Z,58.75
2023-02-15T07:47:33.505Z,58.66
2023-02-15T07:48:06.672Z,58.55
2023-02-15T07:48:40.096Z,58.79
2023-02-15T07:49:12.865Z,58.57
2023-02-15T07:49:45.828Z,58.65
2023-02-15T07:50:18.596Z,58.41
2023-02-15T07:50:51.368Z,58.84
2023-02-15T07:51:24.199Z,58.82
2023-02-15T07:51:56.918Z,58.76
2023-02-15T07:53:41.470Z,58.56
2023-02-15T07:54:14.186Z,58.63
2023-02-15T07:55:06.285Z,58.60
2023-02-15T07:55:39.156Z,58.76
2023-02-15T07:56:33.486Z,58.91
2023-02-15T07:57:03.879Z,59.11
2023-02-15T07:57:36.745Z,59.25
2023-02-15T07:58:09.446Z,59.24
2023-02-15T07:58:54.971Z,59.04
2023-02-15T07:59:28.375Z,59.25
2023-02-15T08:00:01.020Z,59.18
2023-02-15T08:00:58.185Z,58.90
2023-02-15T08:01:32.668Z,58.99
2023-02-15T08:02:10.568Z,59.12
2023-02-15T08:02:43.689Z,59.31
2023-02-15T08:03:16.528Z,59.19
2023-02-15T08:03:49.215Z,59.36
2023-02-15T08:04:40.429Z,59.32
2023-02-15T08:05:13.914Z,59.29
2023-02-15T08:05:46.704Z,59.31
2023-02-15T08:06:19.614Z,59.41
2023-02-15T08:07:40.589Z,59.29
2023-02-15T08:08:31.463Z,58.71
2023-02-15T08:09:05.771Z,58.93
2023-02-15T08:09:38.527Z,58.95
2023-02-15T08:10:33.251Z,58.75
2023-02-15T08:11:40.829Z,58.94
2023-02-15T08:12:13.494Z,59.07
2023-02-15T08:12:46.447Z,58.95
2023-02-15T08:13:54.603Z,58.65
2023-02-15T08:14:51.010Z,58.75
2023-02-15T08:15:23.868Z,58.84
2023-02-15T08:15:56.747Z,58.50
2023-02-15T08:16:40.851Z,58.66
2023-02-15T08:17:32.486Z,58.44
2023-02-15T08:19:04.573Z,58.72
2023-02-15T08:19:40.618Z,58.88
2023-02-15T08:20:32.005Z,58.66
2023-02-15T08:21:05.910Z,58.62
2023-02-15T08:21:41.614Z,58.71
2023-02-15T08:22:32.897Z,58.60
2023-02-15T08:23:05.651Z,58.31
2023-02-15T08:23:38.446Z,58.25
2023-02-15T08:24:11.772Z,58.13
2023-02-15T08:24:44.656Z,58.31
2023-02-15T08:25:17.637Z,58.18
2023-02-15T08:25:52.404Z,58.11
2023-02-15T08:26:25.371Z,57.99
2023-02-15T08:27:11.125Z,58.10
2023-02-15T08:27:44.268Z,58.08
2023-02-15T08:29:07.661Z,57.87
2023-02-15T08:29:43.404Z,58.07
2023-02-15T08:30:45.629Z,58.00
2023-02-15T08:31:18.863Z,57.97
2023-02-15T08:31:55.769Z,58.16
2023-02-15T08:32:28.517Z,58.09
2023-02-15T08:33:01.295Z,58.03
2023-02-15T08:33:34.729Z,57.73
2023-02-15T08:34:07.780Z,57.54
2023-02-15T08:34:41.810Z,57.65
2023-02-15T08:35:15.026Z,57.62
2023-02-15T08:35:48.017Z,57.60
2023-02-15T08:36:40.033Z,57.06
2023-02-15T08:37:31.028Z,57.03
2023-02-15T08:38:22.595Z,57.23
2023-02-15T08:39:14.360Z,57.07
2023-02-15T08:40:06.398Z,56.79
2023-02-15T08:41:09.616Z,56.72
2023-02-15T08:41:45.931Z,56.55
2023-02-15T08:42:18.703Z,56.26
2023-02-15T08:42:51.457Z,56.47
2023-02-15T08:43:24.278Z,56.12
2023-02-15T08:43:58.416Z,56.33
2023-02-15T08:44:51.555Z,56.54
2023-02-15T08:45:26.470Z,56.15
2023-02-15T08:45:59.184Z,56.08
2023-02-15T08:46:34.063Z,55.82
2023-02-15T08:47:06.763Z,56.21
2023-02-15T08:47:39.492Z,56.01
2023-02-15T08:48:12.330Z,56.29
2023-02-15T08:49:03.420Z,56.40
2023-02-15T08:49:36.158Z,55.92
2023-02-15T08:50:09.266Z,55.33
2023-02-15T08:50:42.038Z,55.36
2023-02-15T08:51:37.425Z,55.22
2023-02-15T08:52:10.152Z,55.54
2023-02-15T08:52:42.908Z,55.67
2023-02-15T08:53:34.111Z,55.48
2023-02-15T08:54:11.520Z,55.61
2023-02-15T08:54:44.537Z,55.58
2023-02-15T08:55:19.469Z,55.73
2023-02-15T08:55:58.640Z,55.52
2023-02-15T08:56:34.463Z,55.34
2023-02-15T08:57:08.026Z,55.50
2023-02-15T08:57:45.848Z,55.96
2023-02-15T08:58:18.564Z,55.82
2023-02-15T08:58:51.318Z,55.67
2023-02-15T08:59:24.448Z,55.48
2023-02-15T08:59:59.211Z,55.80
2023-02-15T09:00:32.301Z,55.86
2023-02-15T09:01:18.887Z,55.66
2023-02-15T09:01:52.547Z,55.68
2023-02-15T09:02:25.437Z,55.34
2023-02-15T09:02:58.145Z,55.36
2023-02-15T09:03:32.509Z,55.56
2023-02-15T09:04:09.592Z,55.52
2023-02-15T09:04:42.455Z,55.69
2023-02-15T09:05:16.727Z,55.49
2023-02-15T09:05:49.567Z,55.69
2023-02-15T09:06:23.191Z,55.63
2023-02-15T09:06:56.254Z,55.68
2023-02-15T09:07:29.491Z,55.67
2023-02-15T09:08:02.351Z,55.53
2023-02-15T09:08:35.146Z,55.42
2023-02-15T09:09:08.550Z,55.28
2023-02-15T09:09:41.292Z,55.51
2023-02-15T09:10:14.041Z,55.75
2023-02-15T09:11:17.715Z,55.70
2023-02-15T09:11:56.837Z,55.45
2023-02-15T09:12:24.310Z,55.29
2023-02-15T09:12:57.034Z,55.12
2023-02-15T09:13:29.791Z,55.47
2023-02-15T09:14:21.958Z,55.33
2023-02-15T09:14:54.703Z,55.54
2023-02-15T09:15:27.811Z,55.60
2023-02-15T09:16:04.170Z,55.35
2023-02-15T09:16:37.932Z,55.36
2023-02-15T09:17:10.624Z,55.68
2023-02-15T09:17:43.489Z,55.67
2023-02-15T09:18:18.107Z,55.66
2023-02-15T09:18:51.431Z,55.37
2023-02-15T09:19:26.258Z,55.20
2023-02-15T09:19:58.974Z,55.38
2023-02-15T09:20:50.612Z,55.09
2023-02-15T09:21:24.984Z,55.61
2023-02-15T09:21:59.132Z,55.56
2023-02-15T09:22:32.250Z,55.49
2023-02-15T09:23:27.391Z,55.41
2023-02-15T09:24:16.658Z,55.13